EYVI/VNO METAR and TAF weather

Enter ICAO airport designator
Station Type Date Time Source
EYVI METAR 2019/06/26 18:20 UTC NOAA

EYVI 261820Z 26006KT 9999 SCT045CB BKN190 29/15 Q1014 NOSIG


Station Type Date Time Source
EYVI Decoded METAR 2019/06/26 18:20 UTC NOAA

Vilnius, Lithuania (EYVI) 54-38N 025-06E 156M
Jun 26, 2019 - 02:20 PM EDT / 2019.06.26 1820 UTC
Wind: from the W (260 degrees) at 7 MPH (6 KT):0
Visibility: greater than 7 mile(s):0
Sky conditions: mostly cloudy
Weather: Cumulonimbus clouds observed
Temperature: 84 F (29 C)
Dew Point: 59 F (15 C)
Relative Humidity: 42%
Pressure (altimeter): 29.94 in. Hg (1014 hPa)
ob: EYVI 261820Z 26006KT 9999 SCT045CB BKN190 29/15 Q1014 NOSIG
cycle: 18

Station Type Date Time Source
EYVI TAF 2019/06/26 18:09 UTC NOAA

TAF TAF EYVI 261707Z 2618/2718 22007KT 9000 SCT045CB
TEMPO 2618/2622 TSRA
BECMG 2623/2701 28012KT BKN030
TEMPO 2703/2709 BKN015CB
TEMPO 2709/2716 34016G28KT

Example: see airport list